createdAt,value
2022-09-14T00:01:34.805Z,87.80
2022-09-14T00:04:03.489Z,87.90
2022-09-14T00:06:30.990Z,88.00
2022-09-14T00:09:00.689Z,87.70
2022-09-14T00:11:28.845Z,88.00
2022-09-14T00:13:57.057Z,87.60
2022-09-14T00:16:26.237Z,87.60
2022-09-14T00:18:54.044Z,87.40
2022-09-14T00:21:21.306Z,88.40
2022-09-14T00:23:48.595Z,88.40
2022-09-14T00:26:17.927Z,88.10
2022-09-14T00:28:49.626Z,88.10
2022-09-14T00:31:16.893Z,88.20
2022-09-14T00:33:45.091Z,88.10
2022-09-14T00:36:13.026Z,87.90
2022-09-14T00:38:40.266Z,87.70
2022-09-14T00:41:09.049Z,87.50
2022-09-14T00:43:56.596Z,88.00
2022-09-14T00:46:23.643Z,88.10
2022-09-14T00:48:50.646Z,87.90
2022-09-14T00:51:18.468Z,87.80
2022-09-14T00:53:45.512Z,88.20
2022-09-14T00:56:12.959Z,87.80
2022-09-14T00:58:41.310Z,88.20
2022-09-14T01:01:10.270Z,88.00
2022-09-14T01:03:37.440Z,87.70
2022-09-14T01:06:10.464Z,87.80
2022-09-14T01:08:40.303Z,88.30
2022-09-14T01:11:13.877Z,88.60
2022-09-14T01:13:40.504Z,88.10
2022-09-14T01:16:18.508Z,88.10
2022-09-14T01:18:56.673Z,87.70
2022-09-14T01:21:25.502Z,87.60
2022-09-14T01:23:52.222Z,87.90
2022-09-14T01:26:34.401Z,88.30
2022-09-14T01:29:14.292Z,88.10
2022-09-14T01:31:44.440Z,88.30
2022-09-14T01:34:16.949Z,87.80
2022-09-14T01:36:46.503Z,87.70
2022-09-14T01:39:14.401Z,87.80
2022-09-14T01:41:42.268Z,88.30
2022-09-14T01:44:15.557Z,88.10
2022-09-14T01:46:48.183Z,88.10
2022-09-14T01:49:24.972Z,88.90
2022-09-14T01:51:54.221Z,88.70
2022-09-14T01:54:36.258Z,88.60
2022-09-14T01:57:07.349Z,88.50
2022-09-14T01:59:37.725Z,88.30
2022-09-14T02:02:10.528Z,89.00
2022-09-14T02:04:37.599Z,89.20
2022-09-14T02:07:05.020Z,89.10
2022-09-14T02:09:31.666Z,88.80
2022-09-14T02:12:00.817Z,88.70
2022-09-14T02:14:28.026Z,88.80
2022-09-14T02:16:54.768Z,88.70
2022-09-14T02:19:23.905Z,89.20
2022-09-14T02:21:50.978Z,89.30
2022-09-14T02:24:17.960Z,89.10
2022-09-14T02:26:48.804Z,89.30
2022-09-14T02:29:15.785Z,89.30
2022-09-14T02:32:08.414Z,89.20
2022-09-14T02:34:38.145Z,89.00
2022-09-14T02:37:13.862Z,89.00
2022-09-14T02:39:47.079Z,88.80
2022-09-14T02:42:30.531Z,88.70
2022-09-14T02:44:57.425Z,88.80
2022-09-14T02:47:27.052Z,88.70
2022-09-14T02:50:02.145Z,89.10
2022-09-14T02:52:40.084Z,89.30
2022-09-14T02:55:12.354Z,89.20
2022-09-14T02:58:02.822Z,89.10
2022-09-14T03:00:30.460Z,89.30
2022-09-14T03:02:57.777Z,89.60
2022-09-14T03:05:25.832Z,89.30
2022-09-14T03:07:52.972Z,89.20
2022-09-14T03:10:20.137Z,89.20
2022-09-14T03:12:49.235Z,89.00
2022-09-14T03:15:16.401Z,88.90
2022-09-14T03:17:47.393Z,88.70
2022-09-14T03:20:15.617Z,88.80
2022-09-14T03:22:42.865Z,89.00
2022-09-14T03:25:09.878Z,89.20
2022-09-14T03:27:36.518Z,88.90
2022-09-14T03:30:05.010Z,88.80
2022-09-14T03:32:32.096Z,89.00
2022-09-14T03:34:59.655Z,89.00
2022-09-14T03:37:27.045Z,89.00
2022-09-14T03:39:54.069Z,89.20
2022-09-14T03:42:20.849Z,89.30
2022-09-14T03:44:47.709Z,89.00
2022-09-14T03:47:14.646Z,89.20
2022-09-14T03:49:41.385Z,89.50
2022-09-14T03:52:08.343Z,89.70
2022-09-14T03:54:35.215Z,89.80
2022-09-14T03:57:01.842Z,89.40
2022-09-14T03:59:28.708Z,89.30
2022-09-14T04:01:55.713Z,88.90
2022-09-14T04:04:22.575Z,89.40
2022-09-14T04:06:49.752Z,89.30
2022-09-14T04:09:17.546Z,89.10
2022-09-14T04:11:44.166Z,89.50
2022-09-14T04:14:11.361Z,89.20
2022-09-14T04:16:38.060Z,89.60
2022-09-14T04:19:05.031Z,89.50
2022-09-14T04:21:32.554Z,89.10
2022-09-14T04:24:16.192Z,89.50
2022-09-14T04:26:44.010Z,89.40
2022-09-14T04:29:11.562Z,89.60
2022-09-14T04:31:38.385Z,89.20
2022-09-14T04:34:05.159Z,89.60
2022-09-14T04:36:32.275Z,89.10
2022-09-14T04:38:59.944Z,89.10
2022-09-14T04:41:27.891Z,89.30
2022-09-14T04:43:55.446Z,89.30
2022-09-14T04:46:24.277Z,89.60
2022-09-14T04:48:51.698Z,89.40
2022-09-14T04:51:20.040Z,89.70
2022-09-14T04:53:47.604Z,89.50
2022-09-14T04:56:14.845Z,89.70
2022-09-14T04:58:42.870Z,89.70
2022-09-14T05:01:11.106Z,89.20
2022-09-14T05:03:41.740Z,89.50
2022-09-14T05:06:19.037Z,89.70
2022-09-14T05:08:46.544Z,89.50
2022-09-14T05:11:14.869Z,90.00
2022-09-14T05:13:43.361Z,89.50
2022-09-14T05:16:17.104Z,89.00
2022-09-14T05:18:44.544Z,88.90
2022-09-14T05:21:12.764Z,89.40
2022-09-14T05:23:39.846Z,89.30
2022-09-14T05:26:06.964Z,89.50
2022-09-14T05:28:35.681Z,89.40
2022-09-14T05:31:06.969Z,89.30
2022-09-14T05:33:34.289Z,89.60
2022-09-14T05:36:05.685Z,89.40
2022-09-14T05:38:35.609Z,89.10
2022-09-14T05:41:02.508Z,88.70
2022-09-14T05:43:29.861Z,88.80
2022-09-14T05:45:56.978Z,88.80
2022-09-14T05:48:23.775Z,88.40
2022-09-14T05:50:57.753Z,88.30
2022-09-14T05:53:24.606Z,87.80
2022-09-14T05:55:59.033Z,87.90
2022-09-14T05:58:26.390Z,88.10
2022-09-14T06:00:53.055Z,88.20
2022-09-14T06:03:19.961Z,88.20
2022-09-14T06:05:46.959Z,88.40
2022-09-14T06:08:13.657Z,88.30
2022-09-14T06:10:40.853Z,88.30
2022-09-14T06:13:08.030Z,88.00
2022-09-14T06:15:35.001Z,87.70
2022-09-14T06:18:02.058Z,87.70
2022-09-14T06:20:29.022Z,87.90
2022-09-14T06:22:55.812Z,87.90
2022-09-14T06:25:23.752Z,88.10
2022-09-14T06:27:53.642Z,88.10
2022-09-14T06:30:20.353Z,87.90
2022-09-14T06:32:47.564Z,87.70
2022-09-14T06:35:15.108Z,87.60
2022-09-14T06:37:41.792Z,87.40
2022-09-14T06:40:08.976Z,87.00
2022-09-14T06:42:36.023Z,86.90
2022-09-14T06:45:02.730Z,86.60
2022-09-14T06:47:33.104Z,86.10
2022-09-14T06:49:59.830Z,86.30
2022-09-14T06:52:29.442Z,86.20
2022-09-14T06:54:58.605Z,86.10
2022-09-14T06:57:25.463Z,86.30
2022-09-14T06:59:52.142Z,86.20
2022-09-14T07:02:19.725Z,86.20
2022-09-14T07:04:46.661Z,86.00
2022-09-14T07:07:14.580Z,85.80
2022-09-14T07:09:41.807Z,86.10
2022-09-14T07:12:09.910Z,86.10
2022-09-14T07:14:36.843Z,86.10
2022-09-14T07:17:04.608Z,85.90
2022-09-14T07:19:31.559Z,85.90
2022-09-14T07:21:58.310Z,85.70
2022-09-14T07:24:25.247Z,85.90
2022-09-14T07:26:51.986Z,86.20
2022-09-14T07:29:21.813Z,86.30
2022-09-14T07:31:50.093Z,86.30
2022-09-14T07:34:17.117Z,86.50
2022-09-14T07:36:43.932Z,86.40
2022-09-14T07:39:12.520Z,86.40
2022-09-14T07:41:39.425Z,86.50
2022-09-14T07:44:07.320Z,87.00
2022-09-14T07:46:39.339Z,87.00
2022-09-14T07:49:06.957Z,87.10
2022-09-14T07:51:34.769Z,87.20
2022-09-14T07:54:01.949Z,87.10
2022-09-14T07:56:29.047Z,87.10
2022-09-14T07:59:11.475Z,86.70
2022-09-14T08:01:44.024Z,86.70
2022-09-14T08:04:10.861Z,86.30
2022-09-14T08:06:37.789Z,86.10
2022-09-14T08:09:08.572Z,85.40
2022-09-14T08:11:35.542Z,85.40
2022-09-14T08:14:04.411Z,85.30
2022-09-14T08:16:32.149Z,85.10
2022-09-14T08:19:00.068Z,84.90
2022-09-14T08:21:27.373Z,84.50
2022-09-14T08:23:54.464Z,84.40
2022-09-14T08:26:22.333Z,84.10
2022-09-14T08:28:50.516Z,83.50
2022-09-14T08:31:21.872Z,83.50
2022-09-14T08:33:50.115Z,82.70
2022-09-14T08:36:17.869Z,81.80
2022-09-14T08:38:44.898Z,80.90
2022-09-14T08:41:19.535Z,81.20
2022-09-14T08:43:46.161Z,81.20
2022-09-14T08:46:34.247Z,80.40
2022-09-14T08:49:02.622Z,80.00
2022-09-14T08:51:30.079Z,79.30
2022-09-14T08:53:57.752Z,78.60
2022-09-14T08:56:26.238Z,78.50
2022-09-14T08:59:02.761Z,77.70
2022-09-14T09:01:29.516Z,76.30
2022-09-14T09:03:57.167Z,75.40
2022-09-14T09:06:23.797Z,75.30
2022-09-14T09:09:13.926Z,74.20
2022-09-14T09:11:42.393Z,74.20
2022-09-14T09:14:24.362Z,73.50
2022-09-14T09:16:53.209Z,73.80
2022-09-14T09:19:27.993Z,72.80
2022-09-14T09:21:55.731Z,72.60
2022-09-14T09:24:26.178Z,72.50
2022-09-14T09:26:53.078Z,72.10
2022-09-14T09:29:20.067Z,72.10
2022-09-14T09:32:13.506Z,71.90
2022-09-14T09:35:06.553Z,72.10
2022-09-14T09:37:48.649Z,72.50
2022-09-14T09:40:18.133Z,71.80
2022-09-14T09:43:07.202Z,70.60
2022-09-14T09:45:52.682Z,70.30
2022-09-14T09:48:21.016Z,68.90
2022-09-14T09:50:49.973Z,68.50
2022-09-14T09:53:18.446Z,68.70
2022-09-14T09:55:48.281Z,66.70
2022-09-14T09:58:29.129Z,66.70
2022-09-14T10:00:59.719Z,67.70
2022-09-14T10:03:42.241Z,67.60
2022-09-14T10:06:13.288Z,66.80
2022-09-14T10:08:41.514Z,67.00
2022-09-14T10:11:27.150Z,63.80
2022-09-14T10:13:54.017Z,61.70
2022-09-14T10:16:20.830Z,60.80
2022-09-14T10:18:50.144Z,59.20
2022-09-14T10:21:18.257Z,58.80
2022-09-14T10:23:45.417Z,57.00
2022-09-14T10:26:12.239Z,60.40
2022-09-14T10:28:40.493Z,60.50
2022-09-14T10:31:18.337Z,59.40
2022-09-14T10:33:59.612Z,58.90
2022-09-14T10:36:30.746Z,60.30
2022-09-14T10:39:22.066Z,59.40
2022-09-14T10:41:58.115Z,59.40
2022-09-14T10:44:28.061Z,58.90
2022-09-14T10:47:09.450Z,61.50
2022-09-14T10:49:43.737Z,60.50
2022-09-14T10:52:22.686Z,60.00
2022-09-14T10:54:55.328Z,57.40
2022-09-14T10:57:25.522Z,59.50
2022-09-14T10:59:56.699Z,61.60
2022-09-14T11:02:29.746Z,59.20
2022-09-14T11:04:59.868Z,60.10
2022-09-14T11:07:35.621Z,58.60
2022-09-14T11:10:21.283Z,58.30
2022-09-14T11:13:20.166Z,58.30
2022-09-14T11:15:53.687Z,57.40
2022-09-14T11:18:20.403Z,57.70
2022-09-14T11:20:50.040Z,57.30
2022-09-14T11:23:24.710Z,60.40
2022-09-14T11:25:59.614Z,60.10
2022-09-14T11:28:32.524Z,59.70
2022-09-14T11:31:18.231Z,60.30
2022-09-14T11:33:50.967Z,61.40
2022-09-14T11:36:33.626Z,58.50
2022-09-14T11:39:21.046Z,59.00
2022-09-14T11:41:55.291Z,59.20
2022-09-14T11:44:24.554Z,57.20
2022-09-14T11:47:00.741Z,58.20
2022-09-14T11:49:28.120Z,57.80
2022-09-14T11:52:21.174Z,56.60
2022-09-14T11:54:49.909Z,59.50
2022-09-14T11:57:35.394Z,59.40
2022-09-14T12:00:06.887Z,56.80
2022-09-14T12:02:37.652Z,56.70
2022-09-14T12:05:04.294Z,52.70
2022-09-14T12:07:55.684Z,55.00
2022-09-14T12:10:22.637Z,57.60
2022-09-14T12:12:56.884Z,57.20
2022-09-14T12:15:26.995Z,56.30
2022-09-14T12:18:14.254Z,56.90
2022-09-14T12:20:46.328Z,57.70
2022-09-14T12:23:31.944Z,57.50
2022-09-14T12:26:10.757Z,57.20
2022-09-14T12:28:40.516Z,55.20
2022-09-14T12:31:09.676Z,54.60
2022-09-14T12:33:36.343Z,54.10
2022-09-14T12:36:07.240Z,54.60
2022-09-14T12:38:37.137Z,55.90
2022-09-14T12:41:09.808Z,54.20
2022-09-14T12:43:37.197Z,56.80
2022-09-14T12:46:03.847Z,56.10
2022-09-14T12:48:45.982Z,55.50
2022-09-14T12:51:32.868Z,57.10
2022-09-14T12:54:00.381Z,54.50
2022-09-14T12:56:31.646Z,54.70
2022-09-14T12:59:02.777Z,53.20
2022-09-14T13:01:29.518Z,53.80
2022-09-14T13:03:57.723Z,56.30
2022-09-14T13:06:26.868Z,57.00
2022-09-14T13:08:54.549Z,56.80
2022-09-14T13:11:23.562Z,58.40
2022-09-14T13:13:51.075Z,56.10
2022-09-14T13:16:23.411Z,57.30
2022-09-14T13:18:50.098Z,58.50
2022-09-14T13:21:19.997Z,52.50
2022-09-14T13:23:49.354Z,53.30
2022-09-14T13:26:27.490Z,55.50
2022-09-14T13:28:55.148Z,54.20
2022-09-14T13:31:33.650Z,56.50
2022-09-14T13:34:00.856Z,54.70
2022-09-14T13:36:29.313Z,55.70
2022-09-14T13:38:58.559Z,56.10
2022-09-14T13:41:25.562Z,56.30
2022-09-14T13:43:54.261Z,56.60
2022-09-14T13:46:22.732Z,57.20
2022-09-14T13:48:50.061Z,54.40
2022-09-14T13:51:21.558Z,56.10
2022-09-14T13:53:49.482Z,57.90
2022-09-14T13:56:16.136Z,58.40
2022-09-14T13:58:42.793Z,60.50
2022-09-14T14:01:09.770Z,59.20
2022-09-14T14:03:47.566Z,60.00
2022-09-14T14:06:17.528Z,55.10
2022-09-14T14:08:44.499Z,58.50
2022-09-14T14:11:11.202Z,59.10
2022-09-14T14:13:38.443Z,59.60
2022-09-14T14:16:14.444Z,56.80
2022-09-14T14:18:42.626Z,54.80
2022-09-14T14:21:14.338Z,57.60
2022-09-14T14:24:02.626Z,59.60
2022-09-14T14:26:29.388Z,53.80
2022-09-14T14:29:06.930Z,60.60
2022-09-14T14:31:34.340Z,59.60
2022-09-14T14:34:01.295Z,61.10
2022-09-14T14:36:28.590Z,60.90
2022-09-14T14:38:56.544Z,60.00
2022-09-14T14:41:23.254Z,60.80
2022-09-14T14:43:51.035Z,61.30
2022-09-14T14:46:18.159Z,62.20
2022-09-14T14:48:45.168Z,61.10
2022-09-14T14:51:15.218Z,62.30
2022-09-14T14:53:42.631Z,62.20
2022-09-14T14:56:10.670Z,64.00
2022-09-14T14:58:45.824Z,63.20
2022-09-14T15:01:13.292Z,63.80
2022-09-14T15:03:40.135Z,62.90
2022-09-14T15:06:16.770Z,64.10
2022-09-14T15:08:44.733Z,62.50
2022-09-14T15:11:16.599Z,63.50
2022-09-14T15:13:43.836Z,63.50
2022-09-14T15:16:14.365Z,64.00
2022-09-14T15:18:47.208Z,64.90
2022-09-14T15:21:13.860Z,65.70
2022-09-14T15:23:40.608Z,65.20
2022-09-14T15:26:07.507Z,63.80
2022-09-14T15:28:38.619Z,64.00
2022-09-14T15:31:07.879Z,65.70
2022-09-14T15:33:35.825Z,65.20
2022-09-14T15:36:27.856Z,65.20
2022-09-14T15:38:59.249Z,66.80
2022-09-14T15:41:25.996Z,66.00
2022-09-14T15:43:52.690Z,67.80
2022-09-14T15:46:28.502Z,68.00
2022-09-14T15:48:56.238Z,67.60
2022-09-14T15:51:24.863Z,67.00
2022-09-14T15:53:53.157Z,67.30
2022-09-14T15:56:19.830Z,69.10
2022-09-14T15:58:48.238Z,67.70
2022-09-14T16:01:16.445Z,67.50
2022-09-14T16:03:43.479Z,69.20
2022-09-14T16:06:11.073Z,68.50
2022-09-14T16:08:38.252Z,66.20
2022-09-14T16:11:06.970Z,66.20
2022-09-14T16:13:34.415Z,65.90
2022-09-14T16:16:12.564Z,66.80
2022-09-14T16:18:39.566Z,66.60
2022-09-14T16:21:14.911Z,67.70
2022-09-14T16:23:45.002Z,68.00
2022-09-14T16:26:14.360Z,69.70
2022-09-14T16:28:44.170Z,70.70
2022-09-14T16:31:24.721Z,71.90
2022-09-14T16:33:52.682Z,73.00
2022-09-14T16:36:22.777Z,75.60
2022-09-14T16:42:51.454Z,76.70
2022-09-14T16:45:20.492Z,78.30
2022-09-14T16:47:48.223Z,78.90
2022-09-14T16:54:02.656Z,80.20
2022-09-14T16:56:31.497Z,80.30
2022-09-14T16:58:58.969Z,80.80
2022-09-14T17:01:28.587Z,81.30
2022-09-14T17:03:56.313Z,81.00
2022-09-14T17:06:57.067Z,81.50
2022-09-14T17:10:07.432Z,81.60
2022-09-14T17:12:36.343Z,82.10
2022-09-14T17:15:02.984Z,81.90
2022-09-14T17:17:29.752Z,82.20
2022-09-14T17:19:56.420Z,82.70
2022-09-14T17:22:23.129Z,83.00
2022-09-14T17:24:49.994Z,83.00
2022-09-14T17:27:21.944Z,83.00
2022-09-14T17:29:48.770Z,83.40
2022-09-14T17:32:20.818Z,83.20
2022-09-14T17:34:52.091Z,83.00
2022-09-14T17:37:19.818Z,83.20
2022-09-14T17:39:48.880Z,83.10
2022-09-14T17:42:17.772Z,83.50
2022-09-14T17:44:44.693Z,83.40
2022-09-14T17:47:17.178Z,83.70
2022-09-14T17:49:44.088Z,83.70
2022-09-14T17:52:12.798Z,83.80
2022-09-14T17:54:48.853Z,84.00
2022-09-14T17:57:16.505Z,84.30
2022-09-14T17:59:43.435Z,84.20
2022-09-14T18:02:10.408Z,84.50
2022-09-14T18:04:37.222Z,84.20
2022-09-14T18:07:30.638Z,84.80
2022-09-14T18:09:58.471Z,85.10
2022-09-14T18:12:26.232Z,85.30
2022-09-14T18:14:56.927Z,85.70
2022-09-14T18:17:25.649Z,85.90
2022-09-14T18:19:58.242Z,86.00
2022-09-14T18:22:25.766Z,86.10
2022-09-14T18:24:52.515Z,86.20
2022-09-14T18:27:23.533Z,86.20
2022-09-14T18:29:51.386Z,86.50
2022-09-14T18:32:18.064Z,86.40
2022-09-14T18:34:47.054Z,86.40
2022-09-14T18:37:13.772Z,86.20
2022-09-14T18:39:41.841Z,86.40
2022-09-14T18:42:09.565Z,86.50
2022-09-14T18:45:02.182Z,86.70
2022-09-14T18:47:30.339Z,87.00
2022-09-14T18:50:00.617Z,87.10
2022-09-14T18:52:27.532Z,87.20
2022-09-14T18:54:54.185Z,87.60
2022-09-14T18:57:21.129Z,87.60
2022-09-14T18:59:47.793Z,87.60
2022-09-14T19:02:16.953Z,87.60
2022-09-14T19:04:48.741Z,87.60
2022-09-14T19:07:21.573Z,88.00
2022-09-14T19:09:48.734Z,88.00
2022-09-14T19:12:19.460Z,88.00
2022-09-14T19:14:46.184Z,88.20
2022-09-14T19:17:13.902Z,88.20
2022-09-14T19:19:41.535Z,88.40
2022-09-14T19:22:09.454Z,88.60
2022-09-14T19:24:40.506Z,88.70
2022-09-14T19:27:09.212Z,88.60
2022-09-14T19:29:36.315Z,88.70
2022-09-14T19:32:03.105Z,88.50
2022-09-14T19:34:32.334Z,88.20
2022-09-14T19:37:13.298Z,88.20
2022-09-14T19:39:42.365Z,88.20
2022-09-14T19:42:12.132Z,88.30
2022-09-14T19:45:05.266Z,88.10
2022-09-14T19:47:32.418Z,88.30
2022-09-14T19:49:59.101Z,88.30
2022-09-14T19:52:25.978Z,88.40
2022-09-14T19:54:52.898Z,88.20
2022-09-14T19:57:19.575Z,88.10
2022-09-14T19:59:49.875Z,88.40
2022-09-14T20:02:16.906Z,88.30
2022-09-14T20:04:43.657Z,88.40
2022-09-14T20:07:10.504Z,88.50
2022-09-14T20:09:37.386Z,88.30
2022-09-14T20:12:04.055Z,88.40
2022-09-14T20:14:31.271Z,88.30
2022-09-14T20:16:59.016Z,88.30
2022-09-14T20:19:27.613Z,88.60
2022-09-14T20:21:55.835Z,88.40
2022-09-14T20:24:26.696Z,88.70
2022-09-14T20:26:54.671Z,88.50
2022-09-14T20:29:22.955Z,88.10
2022-09-14T20:31:50.546Z,88.30
2022-09-14T20:34:42.188Z,88.10
2022-09-14T20:37:09.961Z,88.10
2022-09-14T20:39:38.188Z,88.20
2022-09-14T20:42:05.393Z,88.00
2022-09-14T20:44:32.279Z,88.10
2022-09-14T20:46:59.078Z,87.80
2022-09-14T20:49:26.857Z,87.70
2022-09-14T20:51:54.542Z,87.90
2022-09-14T20:54:21.375Z,87.90
2022-09-14T20:56:52.840Z,87.90
2022-09-14T20:59:20.165Z,87.80
2022-09-14T21:01:47.480Z,88.20
2022-09-14T21:04:15.577Z,87.80
2022-09-14T21:06:44.524Z,88.20
2022-09-14T21:09:11.922Z,88.30
2022-09-14T21:11:40.310Z,88.20
2022-09-14T21:14:06.978Z,88.30
2022-09-14T21:16:35.541Z,88.50
2022-09-14T21:19:12.825Z,88.60
2022-09-14T21:21:39.712Z,88.30
2022-09-14T21:24:07.349Z,88.70
2022-09-14T21:26:34.480Z,88.40
2022-09-14T21:29:03.826Z,88.30
2022-09-14T21:31:30.954Z,88.60
2022-09-14T21:34:04.389Z,88.70
2022-09-14T21:36:41.507Z,88.70
2022-09-14T21:39:15.956Z,88.70
2022-09-14T21:41:43.988Z,88.80
2022-09-14T21:44:10.777Z,88.90
2022-09-14T21:46:37.945Z,88.80
2022-09-14T21:49:04.865Z,89.00
2022-09-14T21:51:33.249Z,89.40
2022-09-14T21:54:01.592Z,89.50
2022-09-14T21:56:29.780Z,90.00
2022-09-14T21:58:57.440Z,90.00
2022-09-14T22:01:24.941Z,90.10
2022-09-14T22:03:57.756Z,90.60
2022-09-14T22:06:27.510Z,90.40
2022-09-14T22:08:54.685Z,91.00
2022-09-14T22:11:23.527Z,91.50
2022-09-14T22:13:54.295Z,91.30
2022-09-14T22:16:22.107Z,91.30
2022-09-14T22:18:50.563Z,91.80
2022-09-14T22:21:17.584Z,91.90
2022-09-14T22:23:49.067Z,92.00
2022-09-14T22:26:15.698Z,91.90
2022-09-14T22:28:42.822Z,91.80
2022-09-14T22:31:09.730Z,91.60
2022-09-14T22:33:36.932Z,91.70
2022-09-14T22:36:06.220Z,91.50
2022-09-14T22:38:34.422Z,91.50
2022-09-14T22:41:05.357Z,91.30
2022-09-14T22:43:33.162Z,91.20
2022-09-14T22:46:00.298Z,90.90
2022-09-14T22:48:27.284Z,90.80
2022-09-14T22:51:03.241Z,90.70
2022-09-14T22:53:30.191Z,90.70
2022-09-14T22:55:57.249Z,90.50
2022-09-14T22:58:28.089Z,90.20
2022-09-14T23:00:54.785Z,90.40
2022-09-14T23:03:21.466Z,90.10
2022-09-14T23:05:49.926Z,89.70
2022-09-14T23:08:17.010Z,89.50
2022-09-14T23:10:43.938Z,89.10
2022-09-14T23:13:10.828Z,89.10
2022-09-14T23:15:38.449Z,89.00
2022-09-14T23:18:05.648Z,89.10
2022-09-14T23:20:35.731Z,89.00
2022-09-14T23:23:02.666Z,88.90
2022-09-14T23:25:29.311Z,88.90
2022-09-14T23:27:56.343Z,88.70
2022-09-14T23:30:23.235Z,88.90
2022-09-14T23:32:49.872Z,88.90
2022-09-14T23:35:16.888Z,88.70
2022-09-14T23:37:43.750Z,88.60
2022-09-14T23:40:10.801Z,88.60
2022-09-14T23:42:37.880Z,88.50
2022-09-14T23:45:05.389Z,88.80
2022-09-14T23:47:32.043Z,88.80
2022-09-14T23:49:59.101Z,88.50
2022-09-14T23:52:25.964Z,88.60
2022-09-14T23:54:52.627Z,88.70
2022-09-14T23:57:21.614Z,88.70
2022-09-14T23:59:48.507Z,88.90
